createdAt,value
2022-11-07T00:01:14.157Z,10.27
2022-11-07T00:03:40.472Z,10.93
2022-11-07T00:06:07.264Z,9.80
2022-11-07T00:08:33.503Z,12.03
2022-11-07T00:11:01.752Z,11.53
2022-11-07T00:13:28.563Z,11.07
2022-11-07T00:16:02.872Z,12.53
2022-11-07T00:18:29.842Z,11.70
2022-11-07T00:21:00.682Z,10.10
2022-11-07T00:23:27.816Z,10.23
2022-11-07T00:25:54.585Z,14.37
2022-11-07T00:28:20.896Z,10.90
2022-11-07T00:30:47.471Z,10.10
2022-11-07T00:33:13.741Z,11.47
2022-11-07T00:35:41.727Z,11.67
2022-11-07T00:38:07.884Z,10.70
2022-11-07T00:40:34.301Z,10.20
2022-11-07T00:43:00.401Z,10.87
2022-11-07T00:45:26.852Z,10.13
2022-11-07T00:47:53.966Z,10.30
2022-11-07T00:50:20.345Z,10.47
2022-11-07T00:52:46.440Z,11.27
2022-11-07T00:55:12.786Z,11.50
2022-11-07T00:57:38.905Z,10.37
2022-11-07T01:00:06.486Z,11.30
2022-11-07T01:02:32.630Z,10.37
2022-11-07T01:05:11.159Z,10.60
2022-11-07T01:07:40.407Z,12.60
2022-11-07T01:10:07.416Z,11.27
2022-11-07T01:12:34.988Z,10.97
2022-11-07T01:15:03.374Z,11.33
2022-11-07T01:17:29.490Z,10.53
2022-11-07T01:19:55.827Z,12.60
2022-11-07T01:22:21.913Z,11.43
2022-11-07T01:24:48.306Z,10.37
2022-11-07T01:27:14.374Z,11.03
2022-11-07T01:29:40.751Z,10.90
2022-11-07T01:32:06.897Z,11.87
2022-11-07T01:34:33.383Z,11.87
2022-11-07T01:36:59.535Z,11.53
2022-11-07T01:39:26.080Z,10.70
2022-11-07T01:41:52.252Z,9.97
2022-11-07T01:44:18.568Z,10.13
2022-11-07T01:46:47.050Z,11.17
2022-11-07T01:49:20.251Z,10.60
2022-11-07T01:52:07.884Z,10.77
2022-11-07T01:54:40.989Z,13.47
2022-11-07T01:57:13.388Z,10.80
2022-11-07T01:59:40.168Z,11.37
2022-11-07T02:02:08.666Z,11.37
2022-11-07T02:04:36.589Z,10.77
2022-11-07T02:07:02.880Z,11.50
2022-11-07T02:09:29.546Z,12.63
2022-11-07T02:12:00.159Z,11.17
2022-11-07T02:14:28.536Z,11.00
2022-11-07T02:16:55.138Z,11.53
2022-11-07T02:19:32.691Z,11.07
2022-11-07T02:22:10.679Z,10.57
2022-11-07T02:24:38.262Z,11.80
2022-11-07T02:27:12.349Z,12.77
2022-11-07T02:29:41.784Z,12.70
2022-11-07T02:32:10.705Z,12.90
2022-11-07T02:34:37.747Z,11.20
2022-11-07T02:37:11.373Z,11.63
2022-11-07T02:39:38.061Z,11.13
2022-11-07T02:42:05.744Z,11.10
2022-11-07T02:44:33.434Z,12.07
2022-11-07T02:46:59.527Z,11.07
2022-11-07T02:49:25.919Z,10.87
2022-11-07T02:51:52.026Z,10.30
2022-11-07T02:54:18.415Z,10.73
2022-11-07T02:56:48.180Z,10.77
2022-11-07T02:59:14.603Z,10.80
2022-11-07T03:01:40.920Z,11.00
2022-11-07T03:04:07.507Z,11.50
2022-11-07T03:06:33.606Z,10.87
2022-11-07T03:09:00.001Z,11.20
2022-11-07T03:11:26.106Z,10.67
2022-11-07T03:13:54.303Z,11.40
2022-11-07T03:16:20.378Z,11.73
2022-11-07T03:18:47.222Z,10.87
2022-11-07T03:21:13.584Z,10.37
2022-11-07T03:23:41.887Z,10.40
2022-11-07T03:26:08.092Z,11.03
2022-11-07T03:28:34.859Z,11.03
2022-11-07T03:31:03.310Z,11.93
2022-11-07T03:33:30.438Z,10.57
2022-11-07T03:35:56.765Z,12.37
2022-11-07T03:38:23.298Z,11.40
2022-11-07T03:40:49.351Z,11.63
2022-11-07T03:43:16.405Z,12.97
2022-11-07T03:45:42.706Z,10.77
2022-11-07T03:48:09.102Z,11.47
2022-11-07T03:50:35.462Z,10.57
2022-11-07T03:53:01.827Z,11.70
2022-11-07T03:55:27.942Z,11.47
2022-11-07T03:57:54.400Z,14.47
2022-11-07T04:00:20.569Z,12.70
2022-11-07T04:02:47.222Z,13.33
2022-11-07T04:05:13.418Z,12.03
2022-11-07T04:07:39.816Z,12.70
2022-11-07T04:10:06.363Z,12.20
2022-11-07T04:12:52.405Z,12.43
2022-11-07T04:15:38.033Z,13.63
2022-11-07T04:18:04.534Z,12.77
2022-11-07T04:20:31.037Z,12.27
2022-11-07T04:22:57.643Z,13.20
2022-11-07T04:25:44.633Z,12.70
2022-11-07T04:28:11.137Z,13.27
2022-11-07T04:30:37.388Z,12.57
2022-11-07T04:33:04.086Z,11.57
2022-11-07T04:35:32.538Z,12.27
2022-11-07T04:38:00.382Z,12.03
2022-11-07T04:40:27.928Z,12.73
2022-11-07T04:42:54.893Z,12.13
2022-11-07T04:45:21.267Z,12.33
2022-11-07T04:47:48.111Z,11.70
2022-11-07T04:50:17.190Z,11.33
2022-11-07T04:52:45.099Z,11.67
2022-11-07T04:55:18.752Z,11.30
2022-11-07T04:57:45.246Z,11.43
2022-11-07T05:00:12.111Z,11.70
2022-11-07T05:02:38.625Z,11.40
2022-11-07T05:05:05.452Z,11.27
2022-11-07T05:07:31.920Z,13.17
2022-11-07T05:09:58.055Z,13.23
2022-11-07T05:12:24.507Z,13.70
2022-11-07T05:14:50.672Z,13.17
2022-11-07T05:17:17.433Z,14.53
2022-11-07T05:19:43.590Z,12.37
2022-11-07T05:22:29.331Z,13.80
2022-11-07T05:24:55.472Z,13.87
2022-11-07T05:27:22.493Z,13.23
2022-11-07T05:29:48.619Z,13.83
2022-11-07T05:32:16.689Z,14.53
2022-11-07T05:34:43.533Z,14.17
2022-11-07T05:37:11.265Z,15.43
2022-11-07T05:39:37.888Z,14.77
2022-11-07T05:42:04.564Z,15.63
2022-11-07T05:44:30.975Z,14.03
2022-11-07T05:46:57.800Z,12.97
2022-11-07T05:49:24.876Z,13.80
2022-11-07T05:51:52.194Z,13.33
2022-11-07T05:54:18.572Z,13.63
2022-11-07T05:56:45.120Z,13.27
2022-11-07T05:59:12.079Z,14.93
2022-11-07T06:01:38.868Z,13.20
2022-11-07T06:04:08.822Z,13.27
2022-11-07T06:06:35.333Z,12.37
2022-11-07T06:09:01.455Z,12.67
2022-11-07T06:11:28.103Z,14.00
2022-11-07T06:13:54.370Z,12.77
2022-11-07T06:16:21.353Z,13.50
2022-11-07T06:18:47.868Z,12.80
2022-11-07T06:21:15.614Z,13.43
2022-11-07T06:23:42.331Z,14.90
2022-11-07T06:26:09.287Z,14.80
2022-11-07T06:28:35.528Z,15.60
2022-11-07T06:31:04.517Z,15.53
2022-11-07T06:33:32.250Z,15.40
2022-11-07T06:36:11.193Z,16.60
2022-11-07T06:38:40.601Z,14.80
2022-11-07T06:41:09.841Z,13.97
2022-11-07T06:43:36.725Z,14.83
2022-11-07T06:46:11.789Z,14.50
2022-11-07T06:48:38.274Z,15.10
2022-11-07T06:51:06.993Z,14.40
2022-11-07T06:53:33.698Z,15.33
2022-11-07T06:56:01.847Z,14.40
2022-11-07T06:58:28.366Z,14.27
2022-11-07T07:01:03.093Z,14.23
2022-11-07T07:03:29.719Z,13.20
2022-11-07T07:06:04.457Z,12.87
2022-11-07T07:08:31.575Z,12.20
2022-11-07T07:11:03.153Z,12.07
2022-11-07T07:13:29.543Z,12.20
2022-11-07T07:15:57.583Z,11.50
2022-11-07T07:18:25.016Z,11.03
2022-11-07T07:20:54.938Z,10.83
2022-11-07T07:23:21.588Z,11.10
2022-11-07T07:25:48.728Z,11.83
2022-11-07T07:28:14.946Z,10.73
2022-11-07T07:30:41.415Z,11.07
2022-11-07T07:33:07.562Z,11.47
2022-11-07T07:35:34.430Z,10.47
2022-11-07T07:38:00.910Z,9.93
2022-11-07T07:40:27.797Z,9.10
2022-11-07T07:42:54.357Z,9.03
2022-11-07T07:45:21.022Z,8.83
2022-11-07T07:47:47.692Z,7.77
2022-11-07T07:50:14.711Z,7.53
2022-11-07T07:52:41.155Z,7.13
2022-11-07T07:55:09.681Z,6.10
2022-11-07T07:57:43.023Z,6.57
2022-11-07T08:00:11.450Z,6.10
2022-11-07T08:02:43.953Z,6.17
2022-11-07T08:05:12.661Z,5.60
2022-11-07T08:07:46.239Z,5.70
2022-11-07T08:10:39.417Z,5.47
2022-11-07T08:13:00.523Z,5.17
2022-11-07T08:15:27.241Z,5.00
2022-11-07T08:17:53.429Z,4.87
2022-11-07T08:20:20.229Z,5.23
2022-11-07T08:22:46.713Z,5.10
2022-11-07T08:25:15.562Z,5.13
2022-11-07T08:27:42.392Z,4.83
2022-11-07T08:30:15.131Z,4.83
2022-11-07T08:32:44.502Z,5.00
2022-11-07T08:35:11.058Z,4.67
2022-11-07T08:37:37.528Z,5.00
2022-11-07T08:40:04.667Z,4.53
2022-11-07T08:42:31.423Z,4.47
2022-11-07T08:44:58.016Z,4.80
2022-11-07T08:47:24.790Z,5.37
2022-11-07T08:49:52.465Z,4.80
2022-11-07T08:52:19.889Z,5.50
2022-11-07T08:54:46.589Z,5.00
2022-11-07T08:57:12.941Z,5.13
2022-11-07T08:59:39.404Z,5.00
2022-11-07T09:04:52.847Z,5.23
2022-11-07T09:07:19.724Z,5.10
2022-11-07T09:09:48.612Z,4.93
2022-11-07T09:12:15.138Z,4.77
2022-11-07T09:14:41.811Z,4.97
2022-11-07T09:17:09.025Z,5.00
2022-11-07T09:19:35.816Z,4.50
2022-11-07T09:22:02.358Z,4.67
2022-11-07T09:24:29.765Z,4.70
2022-11-07T09:26:56.341Z,4.30
2022-11-07T09:29:23.173Z,4.47
2022-11-07T09:31:50.382Z,5.23
2022-11-07T09:34:17.174Z,4.00
2022-11-07T09:36:43.354Z,4.20
2022-11-07T09:39:10.071Z,4.07
2022-11-07T09:41:42.636Z,4.80
2022-11-07T09:44:17.323Z,4.73
2022-11-07T09:47:01.293Z,4.00
2022-11-07T09:49:38.439Z,4.63
2022-11-07T09:52:20.371Z,4.40
2022-11-07T09:54:56.057Z,4.53
2022-11-07T09:57:23.204Z,4.33
2022-11-07T09:59:55.020Z,4.37
2022-11-07T10:02:25.511Z,4.47
2022-11-07T10:04:57.464Z,4.27
2022-11-07T10:07:38.585Z,4.03
2022-11-07T10:10:47.206Z,4.13
2022-11-07T10:13:43.079Z,5.20
2022-11-07T10:16:20.156Z,4.27
2022-11-07T10:19:25.877Z,4.40
2022-11-07T10:22:01.751Z,4.10
2022-11-07T10:25:05.323Z,4.33
2022-11-07T10:27:33.268Z,4.30
2022-11-07T10:30:00.758Z,4.23
2022-11-07T10:32:53.251Z,4.27
2022-11-07T10:35:33.743Z,3.73
2022-11-07T10:38:14.097Z,4.20
2022-11-07T10:40:41.764Z,4.03
2022-11-07T10:43:19.247Z,4.23
2022-11-07T10:45:46.999Z,3.77
2022-11-07T10:48:14.580Z,3.80
2022-11-07T10:50:54.127Z,3.63
2022-11-07T10:53:23.417Z,3.70
2022-11-07T10:55:51.284Z,4.17
2022-11-07T10:58:22.848Z,3.57
2022-11-07T11:01:08.032Z,3.63
2022-11-07T11:03:45.115Z,3.23
2022-11-07T11:06:17.915Z,3.77
2022-11-07T11:08:46.710Z,3.43
2022-11-07T11:11:33.892Z,3.13
2022-11-07T11:14:12.599Z,3.50
2022-11-07T11:16:41.463Z,4.17
2022-11-07T11:19:22.715Z,4.50
2022-11-07T11:21:51.531Z,4.53
2022-11-07T11:24:32.473Z,3.70
2022-11-07T11:27:04.095Z,4.10
2022-11-07T11:30:06.533Z,4.10
2022-11-07T11:32:47.796Z,3.50
2022-11-07T11:35:24.340Z,4.07
2022-11-07T11:37:58.311Z,3.73
2022-11-07T11:40:24.971Z,4.20
2022-11-07T11:43:04.825Z,4.10
2022-11-07T11:45:43.941Z,4.33
2022-11-07T11:48:16.213Z,3.87
2022-11-07T11:50:47.619Z,4.17
2022-11-07T11:53:17.799Z,4.37
2022-11-07T11:55:56.717Z,3.97
2022-11-07T11:58:31.300Z,4.27
2022-11-07T12:01:07.333Z,4.87
2022-11-07T12:04:08.097Z,5.10
2022-11-07T12:06:39.378Z,4.70
2022-11-07T12:09:52.104Z,4.07
2022-11-07T12:12:28.255Z,3.77
2022-11-07T12:15:13.271Z,3.53
2022-11-07T12:17:52.747Z,3.90
2022-11-07T12:20:33.308Z,4.37
2022-11-07T12:23:16.944Z,3.63
2022-11-07T12:26:10.221Z,3.60
2022-11-07T12:29:02.013Z,4.00
2022-11-07T12:31:46.879Z,3.67
2022-11-07T12:34:31.901Z,3.07
2022-11-07T12:37:40.094Z,4.17
2022-11-07T12:40:34.359Z,3.40
2022-11-07T12:43:38.189Z,3.93
2022-11-07T12:46:14.191Z,3.57
2022-11-07T12:49:02.497Z,4.27
2022-11-07T12:51:38.385Z,3.93
2022-11-07T12:54:16.857Z,3.47
2022-11-07T12:56:46.645Z,3.40
2022-11-07T12:59:26.419Z,3.27
2022-11-07T13:02:06.005Z,3.43
2022-11-07T13:04:38.199Z,3.53
2022-11-07T13:07:34.379Z,3.63
2022-11-07T13:10:16.617Z,3.17
2022-11-07T13:13:05.138Z,3.70
2022-11-07T13:15:47.470Z,3.37
2022-11-07T13:18:28.023Z,3.53
2022-11-07T13:21:02.850Z,3.63
2022-11-07T13:23:29.875Z,3.33
2022-11-07T13:26:25.927Z,3.17
2022-11-07T13:28:58.052Z,3.57
2022-11-07T13:31:45.421Z,3.60
2022-11-07T13:34:18.353Z,3.73
2022-11-07T13:36:50.163Z,3.70
2022-11-07T13:39:17.996Z,3.30
2022-11-07T13:41:47.576Z,3.30
2022-11-07T13:44:26.428Z,3.97
2022-11-07T13:46:55.907Z,3.97
2022-11-07T13:49:43.979Z,3.50
2022-11-07T13:52:29.018Z,3.47
2022-11-07T13:55:23.921Z,3.50
2022-11-07T13:57:55.786Z,3.57
2022-11-07T14:00:22.953Z,3.93
2022-11-07T14:02:58.178Z,3.90
2022-11-07T14:05:27.325Z,4.10
2022-11-07T14:08:00.077Z,4.23
2022-11-07T14:10:42.036Z,6.33
2022-11-07T14:13:11.511Z,6.03
2022-11-07T14:15:47.934Z,5.37
2022-11-07T14:18:18.965Z,5.67
2022-11-07T14:20:57.444Z,6.00
2022-11-07T14:23:26.755Z,6.17
2022-11-07T14:25:56.522Z,6.03
2022-11-07T14:28:23.048Z,5.60
2022-11-07T14:30:51.644Z,6.13
2022-11-07T14:33:21.227Z,6.00
2022-11-07T14:35:50.511Z,5.27
2022-11-07T14:38:27.301Z,5.00
2022-11-07T14:40:58.411Z,6.90
2022-11-07T14:43:26.410Z,5.37
2022-11-07T14:46:18.043Z,5.70
2022-11-07T14:48:46.866Z,5.00
2022-11-07T14:51:17.198Z,5.50
2022-11-07T14:53:49.839Z,4.73
2022-11-07T14:56:22.292Z,4.80
2022-11-07T14:58:48.817Z,5.33
2022-11-07T15:01:26.340Z,4.80
2022-11-07T15:03:59.769Z,5.53
2022-11-07T15:06:40.300Z,4.50
2022-11-07T15:09:08.598Z,4.77
2022-11-07T15:11:37.743Z,4.40
2022-11-07T15:14:20.083Z,5.13
2022-11-07T15:16:48.850Z,5.00
2022-11-07T15:19:19.235Z,5.10
2022-11-07T15:21:51.787Z,4.73
2022-11-07T15:24:43.831Z,4.77
2022-11-07T15:27:13.294Z,5.40
2022-11-07T15:29:49.673Z,5.43
2022-11-07T15:32:20.468Z,4.87
2022-11-07T15:35:37.781Z,5.17
2022-11-07T15:38:01.255Z,5.50
2022-11-07T15:40:29.430Z,6.97
2022-11-07T15:42:56.172Z,9.00
2022-11-07T15:45:23.168Z,8.07
2022-11-07T15:47:50.339Z,7.30
2022-11-07T15:50:19.533Z,10.23
2022-11-07T15:52:49.921Z,11.77
2022-11-07T15:55:18.404Z,11.13
2022-11-07T15:57:47.284Z,10.73
2022-11-07T16:00:19.108Z,12.17
2022-11-07T16:02:46.061Z,12.57
2022-11-07T16:05:13.656Z,13.93
2022-11-07T16:07:44.720Z,19.87
2022-11-07T16:10:21.825Z,19.23
2022-11-07T16:12:49.250Z,16.83
2022-11-07T16:15:17.557Z,9.20
2022-11-07T16:17:44.282Z,8.33
2022-11-07T16:20:15.580Z,7.23
2022-11-07T16:22:43.656Z,5.47
2022-11-07T16:25:22.042Z,6.13
2022-11-07T16:27:54.374Z,6.03
2022-11-07T16:30:21.490Z,6.70
2022-11-07T16:32:48.169Z,6.40
2022-11-07T16:35:14.669Z,6.60
2022-11-07T16:37:41.258Z,6.63
2022-11-07T16:40:12.892Z,7.10
2022-11-07T16:42:39.318Z,6.80
2022-11-07T16:45:06.252Z,7.60
2022-11-07T16:47:36.578Z,6.80
2022-11-07T16:50:03.771Z,7.70
2022-11-07T16:52:30.306Z,8.33
2022-11-07T16:54:56.793Z,8.07
2022-11-07T16:57:25.735Z,7.50
2022-11-07T16:59:52.032Z,8.10
2022-11-07T17:02:24.319Z,8.13
2022-11-07T17:04:52.777Z,7.33
2022-11-07T17:07:22.050Z,6.60
2022-11-07T17:09:48.999Z,11.43
2022-11-07T17:12:24.326Z,11.10
2022-11-07T17:14:50.704Z,7.20
2022-11-07T17:17:18.404Z,7.80
2022-11-07T17:19:45.127Z,9.50
2022-11-07T17:22:12.725Z,8.97
2022-11-07T17:24:39.696Z,30.40
2022-11-07T17:27:22.462Z,28.83
2022-11-07T17:29:50.009Z,28.73
2022-11-07T17:32:16.689Z,19.73
2022-11-07T17:34:43.020Z,14.10
2022-11-07T17:37:14.712Z,22.60
2022-11-07T17:39:45.361Z,29.07
2022-11-07T17:42:12.664Z,44.43
2022-11-07T17:44:39.554Z,24.10
2022-11-07T17:47:20.150Z,12.73
2022-11-07T17:49:46.364Z,8.57
2022-11-07T17:52:12.775Z,9.13
2022-11-07T17:54:38.916Z,13.40
2022-11-07T17:57:08.245Z,11.97
2022-11-07T17:59:34.394Z,10.47
2022-11-07T18:02:01.100Z,9.50
2022-11-07T18:04:27.414Z,10.33
2022-11-07T18:06:53.948Z,9.30
2022-11-07T18:09:20.172Z,9.27
2022-11-07T18:11:46.743Z,11.47
2022-11-07T18:14:13.523Z,17.27
2022-11-07T18:16:40.424Z,23.07
2022-11-07T18:19:06.714Z,14.53
2022-11-07T18:21:33.414Z,12.80
2022-11-07T18:23:59.858Z,12.10
2022-11-07T18:26:32.725Z,12.00
2022-11-07T18:29:05.278Z,10.47
2022-11-07T18:31:32.117Z,9.87
2022-11-07T18:34:00.831Z,10.17
2022-11-07T18:36:30.006Z,9.43
2022-11-07T18:39:01.156Z,8.83
2022-11-07T18:41:27.884Z,8.00
2022-11-07T18:43:54.381Z,9.57
2022-11-07T18:46:21.670Z,9.67
2022-11-07T18:48:48.436Z,9.93
2022-11-07T18:51:21.196Z,9.30
2022-11-07T18:53:48.547Z,9.53
2022-11-07T18:56:15.887Z,9.07
2022-11-07T18:58:42.755Z,10.30
2022-11-07T19:01:22.911Z,11.27
2022-11-07T19:03:51.863Z,13.40
2022-11-07T19:06:20.849Z,14.30
2022-11-07T19:08:47.708Z,18.57
2022-11-07T19:11:20.251Z,14.00
2022-11-07T19:13:47.029Z,14.67
2022-11-07T19:16:16.450Z,16.53
2022-11-07T19:18:49.119Z,13.03
2022-11-07T19:21:19.612Z,11.73
2022-11-07T19:23:47.321Z,14.00
2022-11-07T19:26:14.193Z,11.10
2022-11-07T19:28:40.436Z,12.43
2022-11-07T19:31:12.076Z,11.33
2022-11-07T19:33:42.526Z,10.87
2022-11-07T19:36:15.856Z,11.47
2022-11-07T19:38:42.710Z,12.23
2022-11-07T19:41:10.547Z,10.23
2022-11-07T19:43:38.197Z,8.83
2022-11-07T19:46:07.986Z,8.13
2022-11-07T19:48:34.482Z,8.77
2022-11-07T19:51:06.034Z,7.90
2022-11-07T19:53:32.363Z,8.20
2022-11-07T19:56:06.353Z,7.77
2022-11-07T19:58:35.446Z,11.10
2022-11-07T20:01:09.286Z,10.27
2022-11-07T20:03:35.616Z,10.17
2022-11-07T20:06:02.078Z,11.97
2022-11-07T20:08:28.357Z,11.10
2022-11-07T20:10:54.797Z,11.13
2022-11-07T20:13:21.058Z,10.67
2022-11-07T20:15:47.791Z,12.33
2022-11-07T20:18:14.026Z,12.60
2022-11-07T20:20:40.945Z,11.97
2022-11-07T20:23:07.356Z,11.30
2022-11-07T20:25:33.813Z,11.33
2022-11-07T20:28:00.519Z,10.07
2022-11-07T20:30:27.518Z,9.70
2022-11-07T20:32:53.945Z,9.70
2022-11-07T20:35:20.509Z,9.70
2022-11-07T20:37:46.925Z,9.43
2022-11-07T20:40:13.940Z,9.67
2022-11-07T20:42:40.239Z,8.77
2022-11-07T20:45:07.257Z,8.60
2022-11-07T20:47:33.903Z,8.77
2022-11-07T20:50:00.534Z,10.20
2022-11-07T20:52:26.782Z,8.27
2022-11-07T20:54:53.246Z,7.80
2022-11-07T20:57:19.678Z,8.50
2022-11-07T20:59:46.265Z,8.63
2022-11-07T21:02:13.335Z,8.60
2022-11-07T21:04:56.182Z,9.10
2022-11-07T21:07:26.397Z,8.43
2022-11-07T21:09:53.924Z,8.00
2022-11-07T21:12:20.164Z,8.03
2022-11-07T21:14:46.756Z,8.77
2022-11-07T21:17:15.430Z,8.20
2022-11-07T21:19:42.158Z,8.57
2022-11-07T21:22:08.559Z,8.53
2022-11-07T21:24:35.368Z,9.07
2022-11-07T21:27:01.661Z,8.20
2022-11-07T21:29:29.781Z,8.60
2022-11-07T21:31:57.089Z,7.87
2022-11-07T21:34:24.186Z,8.33
2022-11-07T21:36:50.596Z,8.13
2022-11-07T21:39:17.303Z,8.20
2022-11-07T21:41:43.476Z,8.27
2022-11-07T21:44:11.460Z,8.50
2022-11-07T21:46:37.659Z,9.47
2022-11-07T21:49:05.376Z,8.90
2022-11-07T21:51:33.935Z,9.33
2022-11-07T21:54:24.072Z,8.57
2022-11-07T21:56:50.295Z,9.53
2022-11-07T21:59:18.841Z,9.87
2022-11-07T22:01:47.804Z,7.43
2022-11-07T22:04:15.171Z,8.17
2022-11-07T22:06:44.059Z,8.23
2022-11-07T22:09:15.585Z,8.60
2022-11-07T22:11:42.334Z,8.20
2022-11-07T22:14:14.150Z,7.67
2022-11-07T22:16:40.662Z,7.10
2022-11-07T22:19:12.012Z,7.40
2022-11-07T22:21:39.506Z,7.50
2022-11-07T22:24:06.281Z,7.60
2022-11-07T22:26:35.383Z,7.67
2022-11-07T22:29:02.141Z,7.30
2022-11-07T22:31:29.996Z,6.60
2022-11-07T22:33:57.910Z,7.73
2022-11-07T22:36:24.478Z,8.27
2022-11-07T22:38:51.049Z,8.33
2022-11-07T22:41:22.170Z,8.90
2022-11-07T22:43:49.524Z,9.17
2022-11-07T22:46:21.491Z,9.10
2022-11-07T22:48:48.921Z,8.50
2022-11-07T22:51:21.193Z,8.13
2022-11-07T22:53:53.959Z,8.07
2022-11-07T22:56:20.196Z,8.80
2022-11-07T22:58:46.754Z,8.13
2022-11-07T23:01:20.189Z,8.57
2022-11-07T23:03:47.826Z,8.40
2022-11-07T23:06:15.055Z,7.93
2022-11-07T23:08:41.607Z,9.67
2022-11-07T23:14:05.318Z,9.13
2022-11-07T23:16:34.636Z,8.60
2022-11-07T23:19:03.563Z,8.03
2022-11-07T23:21:29.877Z,7.37
2022-11-07T23:23:57.631Z,7.07
2022-11-07T23:26:24.973Z,6.53
2022-11-07T23:28:51.836Z,7.07
2022-11-07T23:31:19.179Z,6.70
2022-11-07T23:33:45.592Z,7.10
2022-11-07T23:36:14.014Z,6.97
2022-11-07T23:38:41.833Z,6.20
2022-11-07T23:41:10.852Z,6.53
2022-11-07T23:43:37.397Z,6.77
2022-11-07T23:46:23.188Z,6.97
2022-11-07T23:49:14.184Z,6.33
2022-11-07T23:51:41.404Z,5.73
2022-11-07T23:54:27.230Z,6.97
2022-11-07T23:56:53.586Z,6.97
2022-11-07T23:59:38.809Z,6.93
